Ali Cat — MZCL8 — position and weather

sailwx.info

Track history (hours):
 
Tides and Currents Weather Stations Pressure Air Temp Water Temp Dewpoint Dewpoint Depression Visibility Wind Speed Wind Dir Waves Ship Positions

Ali Cat

Operator: MRCC Clyde

Last reported at 2018-Feb-24 09:26 UTC. Time now 2018-Feb-24 12:19 UTC.
Position N 55°57' W 004°54'.

Length 19 m.

Type: Passenger vessel. MMSI: 235056506.

Date/timePositionNaut miles runAvg speedWind from/ knotsBaromVisibWave heightAir tempDewpointWater temp
2018-Feb-24 09:26N 55°57' W 004°54'1 0.1
2018-Feb-23 21:48N 55°57' W 004°53'0 0.1
2018-Feb-23 19:31N 55°57' W 004°52'110.0
2018-Feb-23 19:25N 55°57' W 004°54'2 0.3
2018-Feb-23 14:04N 55°58' W 004°51'2 1.2
2018-Feb-23 12:24N 55°57' W 004°55'1 0.6
2018-Feb-23 11:26N 55°57' W 004°54'0 0.5
2018-Feb-23 10:28N 55°57' W 004°53'1 1.3
2018-Feb-23 09:36N 55°57' W 004°52'1 9.8
2018-Feb-23 09:30N 55°57' W 004°53'0 0.0
2018-Feb-22 21:49N 55°57' W 004°53'1 0.8
2018-Feb-22 20:26N 55°57' W 004°54'2 1.8
2018-Feb-22 19:35N 55°57' W 004°52'111.0
2018-Feb-22 19:28N 55°57' W 004°54'1 0.4
2018-Feb-22 16:31N 55°57' W 004°52'111.4
2018-Feb-22 16:27N 55°57' W 004°53'1 0.3
2018-Feb-22 14:54N 55°57' W 004°54'2 1.8
2018-Feb-22 14:02N 55°58' W 004°52'211.0
2018-Feb-22 13:52N 55°57' W 004°55'2 1.3
2018-Feb-22 12:32N 55°58' W 004°52'110.9
2018-Feb-22 12:29N 55°57' W 004°53'0 0.0
2018-Feb-22 11:29N 55°57' W 004°53'0 0.4
2018-Feb-22 10:27N 55°57' W 004°53'1 0.8
2018-Feb-22 09:33N 55°57' W 004°52'110.4
2018-Feb-22 09:28N 55°57' W 004°54'1 0.0
2018-Feb-21 21:48N 55°57' W 004°53'0 0.3
2018-Feb-21 20:27N 55°57' W 004°53'0 0.4
2018-Feb-21 19:34N 55°57' W 004°53'1 9.6
2018-Feb-21 19:30N 55°57' W 004°54'1 0.4
2018-Feb-21 16:35N 55°57' W 004°52'1 9.8
2018-Feb-21 16:27N 55°57' W 004°54'2 1.2
2018-Feb-21 15:04N 55°57' W 004°51'110.6
2018-Feb-21 14:59N 55°57' W 004°53'0 0.1
2018-Feb-21 13:59N 55°57' W 004°53'0 0.2
2018-Feb-21 12:31N 55°57' W 004°52'0 0.2
2018-Feb-21 11:30N 55°57' W 004°53'1 1.1
2018-Feb-21 10:24N 55°57' W 004°54'2 2.2
2018-Feb-21 09:34N 55°57' W 004°51'210.6
2018-Feb-21 09:25N 55°57' W 004°54'1 0.0
2018-Feb-20 21:47N 55°57' W 004°53'0 0.3
2018-Feb-20 20:29N 55°57' W 004°53'0 0.2
2018-Feb-20 19:30N 55°57' W 004°52'1 0.4
2018-Feb-20 16:38N 55°58' W 004°50'2 9.8
2018-Feb-20 16:28N 55°57' W 004°53'1 0.9
2018-Feb-20 15:04N 55°57' W 004°51'110.3
2018-Feb-20 15:00N 55°57' W 004°52'1 0.7
2018-Feb-20 14:05N 55°57' W 004°51'210.5
2018-Feb-20 13:54N 55°57' W 004°54'1 0.6
2018-Feb-20 12:29N 55°57' W 004°53'1 0.7
2018-Feb-20 11:25N 55°57' W 004°54'2 2.4
2018-Feb-20 10:36N 55°58' W 004°51'210.6
2018-Feb-20 10:24N 55°57' W 004°54'1 1.4
2018-Feb-20 09:31N 55°57' W 004°52'111.0
2018-Feb-20 09:27N 55°57' W 004°53'0 0.0
2018-Feb-19 21:45N 55°57' W 004°54'1 0.8
2018-Feb-19 20:31N 55°57' W 004°52'110.9
2018-Feb-19 20:28N 55°57' W 004°53'0 0.1
2018-Feb-19 19:29N 55°57' W 004°53'1 0.2
2018-Feb-19 16:32N 55°57' W 004°52'110.5
2018-Feb-19 16:29N 55°57' W 004°53'1 0.3
2018-Feb-19 14:56N 55°57' W 004°54'0 0.4
2018-Feb-19 13:58N 55°57' W 004°53'0 0.2
2018-Feb-19 12:26N 55°57' W 004°54'2 2.2
2018-Feb-19 11:37N 55°58' W 004°51'111.0
2018-Feb-19 11:29N 55°57' W 004°53'1 0.6
2018-Feb-19 10:32N 55°57' W 004°52'010.7
2018-Feb-19 10:30N 55°57' W 004°53'1 1.7
2018-Feb-19 09:59N 55°58' W 004°51'1 2.2
2018-Feb-19 09:28N 55°57' W 004°53'0 0.0
2018-Feb-18 16:57N 55°57' W 004°53'2 2.4
2018-Feb-18 16:08N 55°58' W 004°50'210.1
2018-Feb-18 15:57N 55°57' W 004°53'1 1.1
2018-Feb-18 15:04N 55°57' W 004°51'1 9.8
2018-Feb-18 14:58N 55°57' W 004°53'1 1.1
2018-Feb-18 14:04N 55°57' W 004°51'210.0
2018-Feb-18 13:53N 55°57' W 004°54'2 0.1
2018-Feb-17 21:55N 55°58' W 004°51'0 0.0
2018-Feb-17 20:35N 55°58' W 004°51'111.0
2018-Feb-17 20:30N 55°57' W 004°52'1 1.1
2018-Feb-17 19:36N 55°58' W 004°51'210.3
2018-Feb-17 19:26N 55°57' W 004°54'0 0.1
2018-Feb-17 16:27N 55°57' W 004°53'2 1.3
2018-Feb-17 15:08N 55°58' W 004°50'110.3
2018-Feb-17 15:00N 55°57' W 004°52'0 0.2
2018-Feb-17 13:58N 55°57' W 004°53'1 0.7
2018-Feb-17 12:35N 55°58' W 004°51'210.7
2018-Feb-17 12:26N 55°57' W 004°54'1 0.6
2018-Feb-17 11:29N 55°57' W 004°53'0 0.1
2018-Feb-17 10:28N 55°57' W 004°53'0 0.0
2018-Feb-17 09:29N 55°57' W 004°53'1 0.1
2018-Feb-16 16:20N 55°57' W 004°55'1 0.7
2018-Feb-16 14:56N 55°57' W 004°54'1 0.7
2018-Feb-16 13:51N 55°57' W 004°55'0 0.0
2018-Feb-16 12:22N 55°57' W 004°55'1 0.6
2018-Feb-16 11:25N 55°57' W 004°54'1 0.7
2018-Feb-16 10:28N 55°57' W 004°53'1 1.4
2018-Feb-16 09:23N 55°57' W 004°55'0 0.0
2018-Feb-15 21:36N 55°57' W 004°55'2 1.3
2018-Feb-15 20:29N 55°57' W 004°53'0 0.1
2018-Feb-15 19:29N 55°57' W 004°53'1 0.4
2018-Feb-15 16:22N 55°57' W 004°55'1 0.1
2018-Feb-14 21:50N 55°57' W 004°52'0 0.2
2018-Feb-14 20:28N 55°57' W 004°53'0 0.0
2018-Feb-14 19:29N 55°57' W 004°53'0 0.0
2018-Feb-14 17:29N 55°57' W 004°53'0 0.3
2018-Feb-14 16:31N 55°57' W 004°52'  
Track history (hours):
 
Tides and Currents Weather Stations Pressure Air Temp Water Temp Dewpoint Dewpoint Depression Visibility Wind Speed Wind Dir Waves Ship Positions

Ali Cat

Operator: MRCC Clyde

Last reported at 2018-Feb-24 09:26 UTC. Time now 2018-Feb-24 12:19 UTC.
Position N 55°57' W 004°54'.

Length 19 m.

Type: Passenger vessel. MMSI: 235056506.

Date/timePositionNaut miles runAvg speedWind from/ knotsBaromVisibWave heightAir tempDewpointWater temp
2018-Feb-24 09:26N 55°57' W 004°54'1 0.1
2018-Feb-23 21:48N 55°57' W 004°53'0 0.1
2018-Feb-23 19:31N 55°57' W 004°52'110.0
2018-Feb-23 19:25N 55°57' W 004°54'2 0.3
2018-Feb-23 14:04N 55°58' W 004°51'2 1.2
2018-Feb-23 12:24N 55°57' W 004°55'1 0.6
2018-Feb-23 11:26N 55°57' W 004°54'0 0.5
2018-Feb-23 10:28N 55°57' W 004°53'1 1.3
2018-Feb-23 09:36N 55°57' W 004°52'1 9.8
2018-Feb-23 09:30N 55°57' W 004°53'0 0.0
2018-Feb-22 21:49N 55°57' W 004°53'1 0.8
2018-Feb-22 20:26N 55°57' W 004°54'2 1.8
2018-Feb-22 19:35N 55°57' W 004°52'111.0
2018-Feb-22 19:28N 55°57' W 004°54'1 0.4
2018-Feb-22 16:31N 55°57' W 004°52'111.4
2018-Feb-22 16:27N 55°57' W 004°53'1 0.3
2018-Feb-22 14:54N 55°57' W 004°54'2 1.8
2018-Feb-22 14:02N 55°58' W 004°52'211.0
2018-Feb-22 13:52N 55°57' W 004°55'2 1.3
2018-Feb-22 12:32N 55°58' W 004°52'110.9
2018-Feb-22 12:29N 55°57' W 004°53'0 0.0
2018-Feb-22 11:29N 55°57' W 004°53'0 0.4
2018-Feb-22 10:27N 55°57' W 004°53'1 0.8
2018-Feb-22 09:33N 55°57' W 004°52'110.4
2018-Feb-22 09:28N 55°57' W 004°54'1 0.0
2018-Feb-21 21:48N 55°57' W 004°53'0 0.3
2018-Feb-21 20:27N 55°57' W 004°53'0 0.4
2018-Feb-21 19:34N 55°57' W 004°53'1 9.6
2018-Feb-21 19:30N 55°57' W 004°54'1 0.4
2018-Feb-21 16:35N 55°57' W 004°52'1 9.8
2018-Feb-21 16:27N 55°57' W 004°54'2 1.2
2018-Feb-21 15:04N 55°57' W 004°51'110.6
2018-Feb-21 14:59N 55°57' W 004°53'0 0.1
2018-Feb-21 13:59N 55°57' W 004°53'0 0.2
2018-Feb-21 12:31N 55°57' W 004°52'0 0.2
2018-Feb-21 11:30N 55°57' W 004°53'1 1.1
2018-Feb-21 10:24N 55°57' W 004°54'2 2.2
2018-Feb-21 09:34N 55°57' W 004°51'210.6
2018-Feb-21 09:25N 55°57' W 004°54'1 0.0
2018-Feb-20 21:47N 55°57' W 004°53'0 0.3
2018-Feb-20 20:29N 55°57' W 004°53'0 0.2
2018-Feb-20 19:30N 55°57' W 004°52'1 0.4
2018-Feb-20 16:38N 55°58' W 004°50'2 9.8
2018-Feb-20 16:28N 55°57' W 004°53'1 0.9
2018-Feb-20 15:04N 55°57' W 004°51'110.3
2018-Feb-20 15:00N 55°57' W 004°52'1 0.7
2018-Feb-20 14:05N 55°57' W 004°51'210.5
2018-Feb-20 13:54N 55°57' W 004°54'1 0.6
2018-Feb-20 12:29N 55°57' W 004°53'1 0.7
2018-Feb-20 11:25N 55°57' W 004°54'2 2.4
2018-Feb-20 10:36N 55°58' W 004°51'210.6
2018-Feb-20 10:24N 55°57' W 004°54'1 1.4
2018-Feb-20 09:31N 55°57' W 004°52'111.0
2018-Feb-20 09:27N 55°57' W 004°53'0 0.0
2018-Feb-19 21:45N 55°57' W 004°54'1 0.8
2018-Feb-19 20:31N 55°57' W 004°52'110.9
2018-Feb-19 20:28N 55°57' W 004°53'0 0.1
2018-Feb-19 19:29N 55°57' W 004°53'1 0.2
2018-Feb-19 16:32N 55°57' W 004°52'110.5
2018-Feb-19 16:29N 55°57' W 004°53'1 0.3
2018-Feb-19 14:56N 55°57' W 004°54'0 0.4
2018-Feb-19 13:58N 55°57' W 004°53'0 0.2
2018-Feb-19 12:26N 55°57' W 004°54'2 2.2
2018-Feb-19 11:37N 55°58' W 004°51'111.0
2018-Feb-19 11:29N 55°57' W 004°53'1 0.6
2018-Feb-19 10:32N 55°57' W 004°52'010.7
2018-Feb-19 10:30N 55°57' W 004°53'1 1.7
2018-Feb-19 09:59N 55°58' W 004°51'1 2.2
2018-Feb-19 09:28N 55°57' W 004°53'0 0.0
2018-Feb-18 16:57N 55°57' W 004°53'2 2.4
2018-Feb-18 16:08N 55°58' W 004°50'210.1
2018-Feb-18 15:57N 55°57' W 004°53'1 1.1
2018-Feb-18 15:04N 55°57' W 004°51'1 9.8
2018-Feb-18 14:58N 55°57' W 004°53'1 1.1
2018-Feb-18 14:04N 55°57' W 004°51'210.0
2018-Feb-18 13:53N 55°57' W 004°54'2 0.1
2018-Feb-17 21:55N 55°58' W 004°51'0 0.0
2018-Feb-17 20:35N 55°58' W 004°51'111.0
2018-Feb-17 20:30N 55°57' W 004°52'1 1.1
2018-Feb-17 19:36N 55°58' W 004°51'210.3
2018-Feb-17 19:26N 55°57' W 004°54'0 0.1
2018-Feb-17 16:27N 55°57' W 004°53'2 1.3
2018-Feb-17 15:08N 55°58' W 004°50'110.3
2018-Feb-17 15:00N 55°57' W 004°52'0 0.2
2018-Feb-17 13:58N 55°57' W 004°53'1 0.7
2018-Feb-17 12:35N 55°58' W 004°51'210.7
2018-Feb-17 12:26N 55°57' W 004°54'1 0.6
2018-Feb-17 11:29N 55°57' W 004°53'0 0.1
2018-Feb-17 10:28N 55°57' W 004°53'0 0.0
2018-Feb-17 09:29N 55°57' W 004°53'1 0.1
2018-Feb-16 16:20N 55°57' W 004°55'1 0.7
2018-Feb-16 14:56N 55°57' W 004°54'1 0.7
2018-Feb-16 13:51N 55°57' W 004°55'0 0.0
2018-Feb-16 12:22N 55°57' W 004°55'1 0.6
2018-Feb-16 11:25N 55°57' W 004°54'1 0.7
2018-Feb-16 10:28N 55°57' W 004°53'1 1.4
2018-Feb-16 09:23N 55°57' W 004°55'0 0.0
2018-Feb-15 21:36N 55°57' W 004°55'2 1.3
2018-Feb-15 20:29N 55°57' W 004°53'0 0.1
2018-Feb-15 19:29N 55°57' W 004°53'1 0.4
2018-Feb-15 16:22N 55°57' W 004°55'1 0.1
2018-Feb-14 21:50N 55°57' W 004°52'0 0.2
2018-Feb-14 20:28N 55°57' W 004°53'0 0.0
2018-Feb-14 19:29N 55°57' W 004°53'0 0.0
2018-Feb-14 17:29N 55°57' W 004°53'0 0.3
2018-Feb-14 16:31N 55°57' W 004°52'  

Dump ship's entire track history